Time;durP1;ratioP1;P1;durP2;ratioP2;P2;SDS_P1;SDS_P2;PMS_P1;PMS_P2;Temp;Humidity;BMP_temperature;BMP_pressure;BME280_temperature;BME280_humidity;BME280_pressure;Samples;Min_cycle;Max_cycle;Signal;HPM_P1;HPM_P2
2023/08/29 00:03:37;;;;;;;2.33;1.80;;;19.10;92.80;;;;;;10365817;28;20810;-65
2023/08/29 00:08:38;;;;;;;2.57;1.80;;;19.20;92.90;;;;;;10365450;28;20414;-62
2023/08/29 00:13:38;;;;;;;2.80;2.00;;;19.20;92.80;;;;;;10364641;28;21060;-64
2023/08/29 00:18:39;;;;;;;2.57;1.90;;;19.10;92.80;;;;;;10347067;28;20503;-65
2023/08/29 00:23:40;;;;;;;2.97;1.90;;;19.10;92.70;;;;;;10362622;28;20410;-64
2023/08/29 00:28:40;;;;;;;2.97;1.93;;;19.10;92.70;;;;;;10358141;28;20778;-65
2023/08/29 00:33:41;;;;;;;2.50;1.93;;;19.10;92.70;;;;;;10365250;28;20415;-63
2023/08/29 00:38:42;;;;;;;2.40;1.80;;;19.00;92.60;;;;;;10365590;28;20421;-65
2023/08/29 00:43:42;;;;;;;3.42;1.95;;;19.00;92.60;;;;;;10368489;28;20406;-65
2023/08/29 00:48:43;;;;;;;2.50;1.80;;;19.00;92.60;;;;;;10358633;28;20416;-64
2023/08/29 00:53:44;;;;;;;3.15;2.00;;;19.00;92.60;;;;;;10359649;28;20420;-65
2023/08/29 00:58:45;;;;;;;3.40;2.10;;;19.00;92.60;;;;;;10362023;28;20875;-65
2023/08/29 01:03:46;;;;;;;3.20;1.90;;;18.90;92.50;;;;;;10359380;28;20764;-65
2023/08/29 01:08:47;;;;;;;2.17;1.83;;;18.90;92.50;;;;;;10346252;28;20880;-64
2023/08/29 01:14:00;;;;;;;2.22;1.90;;;18.90;92.50;;;;;;10360327;28;20482;-65
2023/08/29 01:19:11;;;;;;;3.90;2.08;;;18.90;92.50;;;;;;10359453;28;20408;-65
2023/08/29 01:24:23;;;;;;;2.72;1.90;;;18.90;92.40;;;;;;10358548;28;20403;-65
2023/08/29 01:29:25;;;;;;;2.88;2.10;;;18.80;92.40;;;;;;10346416;28;20401;-65
2023/08/29 01:34:26;;;;;;;2.23;1.90;;;18.80;92.40;;;;;;10360775;28;20525;-65
2023/08/29 01:39:27;;;;;;;2.35;2.10;;;18.80;92.30;;;;;;10359634;28;20468;-65
2023/08/29 01:44:28;;;;;;;2.85;2.10;;;18.80;92.30;;;;;;10357404;28;20454;-65
2023/08/29 01:49:32;;;;;;;2.42;1.90;;;18.80;92.30;;;;;;10357742;28;20906;-65
2023/08/29 01:54:33;;;;;;;2.22;1.92;;;18.80;92.30;;;;;;10351505;28;20409;-64
2023/08/29 01:59:34;;;;;;;2.70;2.00;;;18.70;92.30;;;;;;10358365;28;20877;-65
2023/08/29 02:04:35;;;;;;;2.22;1.80;;;18.70;92.30;;;;;;10355326;28;20400;-64
2023/08/29 02:09:36;;;;;;;2.70;2.20;;;18.70;92.20;;;;;;10343003;28;20414;-65
2023/08/29 02:14:36;;;;;;;2.90;1.80;;;18.70;92.20;;;;;;10357734;28;20412;-65
2023/08/29 02:19:37;;;;;;;2.80;1.83;;;18.70;92.20;;;;;;10357976;28;20392;-65
2023/08/29 02:24:38;;;;;;;2.53;2.00;;;18.60;92.20;;;;;;10365568;28;20397;-65
2023/08/29 02:29:38;;;;;;;2.22;1.90;;;18.60;92.20;;;;;;10365509;28;20404;-63
2023/08/29 02:34:39;;;;;;;2.37;2.00;;;18.60;92.20;;;;;;10365621;28;21035;-65
2023/08/29 02:39:40;;;;;;;2.67;2.00;;;18.60;92.20;;;;;;10364099;28;20414;-65
2023/08/29 02:44:41;;;;;;;2.08;1.73;;;18.60;92.20;;;;;;10364105;28;20459;-65
2023/08/29 02:49:42;;;;;;;3.13;2.07;;;18.50;92.20;;;;;;10363997;28;20593;-65
2023/08/29 02:54:43;;;;;;;2.53;1.87;;;18.50;92.20;;;;;;10363682;28;20916;-65
2023/08/29 02:59:43;;;;;;;2.40;2.10;;;18.50;92.20;;;;;;10361317;28;20762;-65
2023/08/29 03:04:44;;;;;;;2.47;2.10;;;18.50;92.20;;;;;;10363746;28;20756;-64
2023/08/29 03:09:44;;;;;;;2.75;1.90;;;18.40;92.10;;;;;;10365660;28;21713;-64
2023/08/29 03:14:45;;;;;;;2.35;1.77;;;18.40;92.10;;;;;;10363116;28;20439;-64
2023/08/29 03:19:48;;;;;;;2.40;2.00;;;18.40;92.10;;;;;;10361202;28;20408;-65
2023/08/29 03:24:49;;;;;;;1.85;1.60;;;18.40;92.00;;;;;;10361913;28;20451;-64
2023/08/29 03:29:51;;;;;;;2.10;1.60;;;18.40;92.00;;;;;;10365046;28;20406;-65
2023/08/29 03:34:54;;;;;;;1.88;1.63;;;18.40;92.00;;;;;;10362528;28;20455;-65
2023/08/29 03:39:55;;;;;;;2.30;1.60;;;18.30;92.00;;;;;;10363737;28;20397;-65
2023/08/29 03:44:55;;;;;;;2.40;1.73;;;18.30;91.90;;;;;;10361958;28;20450;-64
2023/08/29 03:49:56;;;;;;;1.90;1.70;;;18.30;91.90;;;;;;10359954;28;20924;-64
2023/08/29 03:54:57;;;;;;;1.50;1.40;;;18.20;91.80;;;;;;10359108;28;20819;-64
2023/08/29 03:59:57;;;;;;;1.40;1.30;;;18.20;91.80;;;;;;10361127;28;20924;-64
2023/08/29 04:05:11;;;;;;;1.80;1.38;;;18.20;91.80;;;;;;10361951;28;20397;-63
2023/08/29 04:10:12;;;;;;;1.90;1.57;;;18.20;91.70;;;;;;10359782;28;20458;-65
2023/08/29 04:15:13;;;;;;;1.88;1.40;;;18.20;91.80;;;;;;10359688;28;20416;-63
2023/08/29 04:20:14;;;;;;;1.43;1.30;;;18.20;91.80;;;;;;10366945;28;20449;-64
2023/08/29 04:25:14;;;;;;;2.00;1.40;;;18.10;91.70;;;;;;10348741;28;20419;-64
2023/08/29 04:30:15;;;;;;;1.80;1.30;;;18.10;91.70;;;;;;10365145;28;20760;-64
2023/08/29 04:35:16;;;;;;;1.63;1.40;;;18.10;91.60;;;;;;10367213;28;20520;-63
2023/08/29 04:40:18;;;;;;;1.75;1.30;;;18.10;91.60;;;;;;10347456;28;20884;-64
2023/08/29 04:45:19;;;;;;;1.27;1.17;;;18.10;91.60;;;;;;10365147;28;20410;-65
2023/08/29 04:50:20;;;;;;;1.35;1.20;;;18.10;91.50;;;;;;10360259;28;20408;-64
2023/08/29 04:55:25;;;;;;;1.35;1.10;;;18.00;91.50;;;;;;10364500;28;20420;-64
2023/08/29 05:00:25;;;;;;;1.75;1.30;;;18.00;91.40;;;;;;10358942;28;20401;-64
2023/08/29 05:05:26;;;;;;;1.50;1.20;;;18.00;91.40;;;;;;10353673;28;20412;-64
2023/08/29 05:10:26;;;;;;;1.43;1.20;;;18.00;91.30;;;;;;10360498;28;20757;-65
2023/08/29 05:15:27;;;;;;;1.30;1.17;;;18.00;91.40;;;;;;10362572;28;20474;-65
2023/08/29 05:20:28;;;;;;;1.40;1.20;;;18.00;91.40;;;;;;10367465;28;20537;-66
2023/08/29 05:25:28;;;;;;;1.90;1.07;;;17.90;91.30;;;;;;10359075;28;20420;-64
2023/08/29 05:30:30;;;;;;;1.42;1.15;;;17.90;91.30;;;;;;10358705;28;20454;-63
2023/08/29 05:35:31;;;;;;;2.50;1.10;;;17.90;91.50;;;;;;10362574;28;20412;-64
2023/08/29 05:40:31;;;;;;;2.30;1.00;;;17.90;91.60;;;;;;10356295;28;20429;-64
2023/08/29 05:45:32;;;;;;;2.23;1.20;;;17.90;91.60;;;;;;10359941;28;20896;-62
2023/08/29 05:50:32;;;;;;;1.20;0.90;;;17.90;91.60;;;;;;10354322;28;20422;-63
2023/08/29 05:55:34;;;;;;;1.57;0.80;;;17.90;91.50;;;;;;10360681;28;20417;-63
2023/08/29 06:00:35;;;;;;;1.63;1.00;;;17.90;91.50;;;;;;10357899;28;20403;-64
2023/08/29 06:05:36;;;;;;;1.87;0.80;;;17.90;91.50;;;;;;10341867;28;20416;-65
2023/08/29 06:10:37;;;;;;;1.30;1.00;;;17.90;91.40;;;;;;10358620;28;20435;-63
2023/08/29 06:15:38;;;;;;;0.77;0.70;;;17.90;91.40;;;;;;10356301;28;20408;-64
2023/08/29 06:20:38;;;;;;;1.95;0.82;;;17.90;91.40;;;;;;10358063;28;20912;-63
2023/08/29 06:25:39;;;;;;;1.70;0.97;;;17.90;91.40;;;;;;10364165;28;20559;-64
2023/08/29 06:30:40;;;;;;;1.60;0.90;;;17.90;91.40;;;;;;10358433;28;20404;-64
2023/08/29 06:35:42;;;;;;;1.40;1.17;;;17.90;91.40;;;;;;10359815;28;21519;-64
2023/08/29 06:40:42;;;;;;;2.50;1.40;;;17.90;92.00;;;;;;10353513;28;20490;-64
2023/08/29 06:45:43;;;;;;;2.28;1.10;;;17.70;92.80;;;;;;10353354;28;20410;-65
2023/08/29 06:50:45;;;;;;;2.35;1.20;;;17.70;93.00;;;;;;10361310;28;20419;-62
2023/08/29 06:55:46;;;;;;;1.60;1.00;;;17.70;92.80;;;;;;10355798;28;20444;-62
2023/08/29 07:00:47;;;;;;;1.23;1.00;;;17.70;92.60;;;;;;10358029;28;20401;-64
2023/08/29 07:05:48;;;;;;;2.10;0.90;;;17.80;92.50;;;;;;10349435;28;20926;-64
2023/08/29 07:10:48;;;;;;;1.43;1.00;;;17.80;92.50;;;;;;10368847;28;20419;-64
2023/08/29 07:15:49;;;;;;;1.73;0.93;;;17.90;92.50;;;;;;10365951;28;20413;-63
2023/08/29 07:20:50;;;;;;;1.52;0.90;;;17.90;92.50;;;;;;10363469;28;20397;-65
2023/08/29 07:25:51;;;;;;;1.07;0.90;;;18.00;92.50;;;;;;10363763;28;20415;-64
2023/08/29 07:30:51;;;;;;;1.53;0.90;;;18.00;92.50;;;;;;10351378;28;20412;-64
2023/08/29 07:35:52;;;;;;;2.47;0.93;;;18.10;92.60;;;;;;10365053;28;20426;-64
2023/08/29 07:40:52;;;;;;;1.65;0.90;;;18.20;92.60;;;;;;10358197;28;20416;-65
2023/08/29 07:45:53;;;;;;;1.17;0.80;;;18.20;92.60;;;;;;10362510;28;20776;-62
2023/08/29 07:50:54;;;;;;;1.27;0.80;;;18.20;92.60;;;;;;10358967;28;20421;-63
2023/08/29 07:55:54;;;;;;;1.10;0.70;;;18.20;92.50;;;;;;10359912;28;20416;-64
2023/08/29 08:00:55;;;;;;;1.63;0.83;;;18.30;92.50;;;;;;10359339;28;20420;-64
2023/08/29 08:05:56;;;;;;;1.20;0.70;;;18.30;92.50;;;;;;10352459;28;20491;-64
2023/08/29 08:10:56;;;;;;;1.08;0.80;;;18.30;92.40;;;;;;10357260;28;20409;-62
2023/08/29 08:15:58;;;;;;;1.30;0.77;;;18.40;92.50;;;;;;10353444;28;20436;-65
2023/08/29 08:20:58;;;;;;;1.40;0.70;;;18.40;92.50;;;;;;10356650;28;20986;-66
2023/08/29 08:25:59;;;;;;;1.17;0.80;;;18.40;92.50;;;;;;10339651;28;20413;-64
2023/08/29 08:31:00;;;;;;;1.00;0.67;;;18.40;92.50;;;;;;10366390;28;20903;-64
2023/08/29 08:36:00;;;;;;;0.97;0.67;;;18.50;92.50;;;;;;10363188;28;20499;-64
2023/08/29 08:41:03;;;;;;;1.47;0.70;;;18.50;92.50;;;;;;10363841;28;20889;-64
2023/08/29 08:46:04;;;;;;;1.13;0.80;;;18.60;92.40;;;;;;10360605;28;20926;-66
2023/08/29 08:51:05;;;;;;;1.67;0.70;;;18.60;92.40;;;;;;10361345;28;20974;-63
2023/08/29 08:56:08;;;;;;;1.60;0.73;;;18.60;92.40;;;;;;10359696;28;20416;-64
2023/08/29 09:01:08;;;;;;;0.68;0.60;;;18.70;92.30;;;;;;10366412;28;20401;-65
2023/08/29 09:06:09;;;;;;;1.07;0.70;;;18.70;92.30;;;;;;10361030;28;20408;-63
2023/08/29 09:11:10;;;;;;;1.35;0.75;;;18.80;92.40;;;;;;10359436;28;20405;-65
2023/08/29 09:16:12;;;;;;;1.60;0.70;;;18.80;92.40;;;;;;10360377;28;20794;-65
2023/08/29 09:21:17;;;;;;;0.90;0.50;;;18.80;92.40;;;;;;10347470;28;20408;-64
2023/08/29 09:26:18;;;;;;;1.63;0.77;;;18.80;92.40;;;;;;10363780;28;20404;-65
2023/08/29 09:31:19;;;;;;;1.35;0.70;;;18.90;92.40;;;;;;10365794;28;20415;-64
2023/08/29 09:36:20;;;;;;;0.95;0.70;;;18.90;92.40;;;;;;10341504;28;20425;-65
2023/08/29 09:41:21;;;;;;;1.42;0.80;;;19.00;92.40;;;;;;10356398;28;20415;-64
2023/08/29 09:46:26;;;;;;;1.75;0.70;;;19.00;92.40;;;;;;10358484;28;20911;-64
2023/08/29 09:51:29;;;;;;;0.88;0.70;;;19.00;92.40;;;;;;10362704;28;20460;-64
2023/08/29 09:56:31;;;;;;;1.10;0.70;;;19.10;92.40;;;;;;10354585;28;20654;-63
2023/08/29 10:01:32;;;;;;;0.90;0.70;;;19.10;92.40;;;;;;10362248;28;20455;-65
2023/08/29 10:06:35;;;;;;;1.65;0.70;;;19.10;92.30;;;;;;10362477;28;20489;-63
2023/08/29 10:11:36;;;;;;;1.40;0.70;;;19.20;92.40;;;;;;10351994;28;20400;-65
2023/08/29 10:16:39;;;;;;;0.80;0.70;;;19.20;92.40;;;;;;10361453;28;20411;-63
2023/08/29 10:21:42;;;;;;;0.90;0.70;;;18.00;92.10;;;;;;10344067;28;20416;-65
2023/08/29 10:26:44;;;;;;;1.00;0.80;;;19.20;92.30;;;;;;10358504;28;20434;-64
2023/08/29 10:31:45;;;;;;;0.95;0.60;;;19.20;92.40;;;;;;10361993;28;20464;-65
2023/08/29 10:36:46;;;;;;;0.63;0.60;;;19.20;92.30;;;;;;10360244;28;20496;-64
2023/08/29 10:41:48;;;;;;;0.83;0.70;;;19.30;92.30;;;;;;10346172;28;20404;-64
2023/08/29 10:46:53;;;;;;;1.58;0.70;;;19.30;92.30;;;;;;10367360;28;20508;-64
2023/08/29 10:52:19;;;;;;;1.42;0.80;;;19.30;92.30;;;;;;10363260;28;20424;-64
2023/08/29 10:57:30;;;;;;;0.93;0.70;;;19.30;92.30;;;;;;10362364;28;20427;-63
2023/08/29 11:02:31;;;;;;;1.15;0.80;;;19.40;92.30;;;;;;10370140;28;20876;-64
2023/08/29 11:07:34;;;;;;;0.88;0.80;;;19.40;92.20;;;;;;10364337;28;20596;-64
2023/08/29 11:12:35;;;;;;;1.13;1.03;;;19.50;92.20;;;;;;10360440;28;20407;-64
2023/08/29 11:17:36;;;;;;;1.75;1.10;;;19.60;92.10;;;;;;10369948;28;20918;-65
2023/08/29 11:22:38;;;;;;;1.52;1.10;;;19.70;92.10;;;;;;10365491;28;20414;-65
2023/08/29 11:27:39;;;;;;;1.80;1.20;;;19.80;92.00;;;;;;10362068;28;20402;-65
2023/08/29 11:32:39;;;;;;;1.75;1.20;;;19.90;91.90;;;;;;10361498;28;20416;-65
2023/08/29 11:37:40;;;;;;;1.90;1.10;;;20.00;91.80;;;;;;10362584;28;20422;-64
2023/08/29 11:42:43;;;;;;;1.35;1.25;;;20.00;91.80;;;;;;10362728;28;20463;-65
2023/08/29 11:47:43;;;;;;;1.55;1.23;;;20.00;91.90;;;;;;10349753;28;20452;-65
2023/08/29 11:52:44;;;;;;;1.73;1.30;;;20.00;91.80;;;;;;10362127;28;20969;-65
2023/08/29 11:57:45;;;;;;;1.40;1.30;;;20.00;91.80;;;;;;10361733;28;21512;-65
2023/08/29 12:02:46;;;;;;;1.75;1.30;;;20.10;91.80;;;;;;10360811;28;20412;-66
2023/08/29 12:07:51;;;;;;;1.67;1.30;;;20.00;91.90;;;;;;10360826;28;20405;-65
2023/08/29 12:12:52;;;;;;;2.37;1.30;;;20.00;91.90;;;;;;10360723;28;20409;-65
2023/08/29 12:17:54;;;;;;;1.50;1.40;;;20.00;92.00;;;;;;10342501;28;20424;-64
2023/08/29 12:22:55;;;;;;;1.77;1.30;;;20.10;92.00;;;;;;10360733;28;20979;-65
2023/08/29 12:27:56;;;;;;;1.38;1.20;;;20.10;92.10;;;;;;10357968;28;20436;-64
2023/08/29 12:33:04;;;;;;;1.20;1.10;;;20.10;92.10;;;;;;10356877;28;20414;-64
2023/08/29 12:38:05;;;;;;;1.30;1.20;;;20.10;92.00;;;;;;10342669;28;20412;-63
2023/08/29 12:43:08;;;;;;;2.00;1.50;;;20.10;92.20;;;;;;10354879;28;20401;-66
2023/08/29 12:48:09;;;;;;;4.40;3.30;;;20.10;91.80;;;;;;10358533;28;20408;-66
2023/08/29 12:53:09;;;;;;;4.65;3.83;;;20.10;92.00;;;;;;10358749;28;20420;-66
2023/08/29 12:58:10;;;;;;;4.05;3.10;;;20.10;91.90;;;;;;10357290;28;20443;-66
2023/08/29 13:03:11;;;;;;;5.00;3.70;;;20.10;92.10;;;;;;10344135;28;20412;-67
2023/08/29 13:08:15;;;;;;;3.88;3.47;;;20.10;92.30;;;;;;10357623;28;20912;-66
2023/08/29 13:13:16;;;;;;;5.40;4.90;;;20.10;92.80;;;;;;10355604;28;20403;-66
2023/08/29 13:18:16;;;;;;;6.32;5.38;;;20.20;92.70;;;;;;10356975;28;20490;-67
2023/08/29 13:23:17;;;;;;;6.67;5.10;;;20.20;92.90;;;;;;10361051;28;20559;-66
2023/08/29 13:28:18;;;;;;;5.10;3.70;;;20.20;92.80;;;;;;10359139;28;20467;-67
2023/08/29 13:33:18;;;;;;;5.27;3.93;;;20.20;92.10;;;;;;10356927;28;20491;-65
2023/08/29 13:38:19;;;;;;;4.80;3.67;;;20.30;91.90;;;;;;10358452;28;20829;-66
2023/08/29 13:43:20;;;;;;;4.10;3.20;;;20.40;91.90;;;;;;10341950;28;20413;-66
2023/08/29 13:48:20;;;;;;;5.33;3.03;;;20.40;91.40;;;;;;10356898;28;20412;-67
2023/08/29 13:53:21;;;;;;;3.73;2.90;;;20.40;91.40;;;;;;10351728;28;20428;-67
2023/08/29 13:58:22;;;;;;;2.77;2.57;;;20.50;90.70;;;;;;10358782;28;20471;-66
2023/08/29 14:03:22;;;;;;;3.43;2.87;;;20.50;89.70;;;;;;10353429;28;21005;-67
2023/08/29 14:08:23;;;;;;;4.07;2.70;;;20.50;90.80;;;;;;10355239;28;20503;-67
2023/08/29 14:13:23;;;;;;;5.85;4.35;;;20.60;90.70;;;;;;10340509;28;20416;-67
2023/08/29 14:18:25;;;;;;;5.90;4.72;;;20.70;90.40;;;;;;10351445;28;20423;-67
2023/08/29 14:23:26;;;;;;;5.95;4.50;;;20.90;90.80;;;;;;10341700;28;20792;-67
2023/08/29 14:28:28;;;;;;;5.75;4.47;;;20.90;90.80;;;;;;10354219;28;20439;-67
2023/08/29 14:33:29;;;;;;;7.25;4.90;;;20.90;90.70;;;;;;10355259;28;20404;-66
2023/08/29 14:38:30;;;;;;;6.10;4.47;;;20.80;90.60;;;;;;10351827;28;20416;-64
2023/08/29 14:43:31;;;;;;;5.20;4.07;;;20.70;90.50;;;;;;10359942;28;20836;-67
2023/08/29 14:48:33;;;;;;;5.60;4.20;;;20.70;90.90;;;;;;10354041;28;20461;-69
2023/08/29 14:53:35;;;;;;;5.53;4.65;;;20.70;90.20;;;;;;10353203;28;20948;-69
2023/08/29 14:58:37;;;;;;;4.55;4.00;;;20.70;90.40;;;;;;10351256;28;20428;-68
2023/08/29 15:03:38;;;;;;;4.70;3.88;;;20.70;90.30;;;;;;10366444;28;20471;-68
2023/08/29 15:08:40;;;;;;;4.40;3.85;;;20.70;89.50;;;;;;10356649;28;20432;-68
2023/08/29 15:13:41;;;;;;;5.05;3.78;;;20.70;89.50;;;;;;10360709;28;20408;-66
2023/08/29 15:18:42;;;;;;;4.82;3.67;;;20.70;90.80;;;;;;10340566;28;21102;-66
2023/08/29 15:23:43;;;;;;;4.50;3.30;;;20.70;90.30;;;;;;10353484;28;20408;-68
2023/08/29 15:28:44;;;;;;;4.03;3.45;;;20.70;90.70;;;;;;10347284;28;20415;-65
2023/08/29 15:33:46;;;;;;;3.90;3.50;;;20.80;90.60;;;;;;10349022;28;20572;-66
2023/08/29 15:38:47;;;;;;;4.00;3.43;;;20.80;89.30;;;;;;10350945;28;20847;-70
2023/08/29 15:43:48;;;;;;;5.97;3.95;;;20.90;89.30;;;;;;10362040;28;20404;-67
2023/08/29 15:48:49;;;;;;;5.33;4.23;;;20.90;88.70;;;;;;10365021;28;20482;-66
2023/08/29 15:53:53;;;;;;;4.00;3.50;;;20.90;89.20;;;;;;10362098;28;20565;-67
2023/08/29 15:58:56;;;;;;;6.80;4.38;;;20.80;90.00;;;;;;10363531;28;20423;-65
2023/08/29 16:03:57;;;;;;;5.70;4.53;;;20.70;90.10;;;;;;10366207;28;20793;-66
2023/08/29 16:08:57;;;;;;;6.03;4.35;;;20.70;90.90;;;;;;10365476;28;20411;-67
2023/08/29 16:13:58;;;;;;;4.70;3.97;;;20.60;91.90;;;;;;10360303;28;20764;-66
2023/08/29 16:18:59;;;;;;;4.32;3.90;;;20.60;92.50;;;;;;10367292;28;20445;-66
2023/08/29 16:23:59;;;;;;;5.30;4.50;;;20.50;92.40;;;;;;10362472;28;20478;-66
2023/08/29 16:29:00;;;;;;;6.63;4.53;;;20.40;92.30;;;;;;10364370;28;20417;-68
2023/08/29 16:34:00;;;;;;;5.27;4.77;;;20.40;92.30;;;;;;10361153;28;20408;-67
2023/08/29 16:39:02;;;;;;;4.90;4.40;;;20.40;92.90;;;;;;10358317;28;20493;-66
2023/08/29 16:44:04;;;;;;;7.25;4.90;;;20.40;93.40;;;;;;10347078;28;20499;-66
2023/08/29 16:49:05;;;;;;;8.65;5.10;;;20.30;93.70;;;;;;10356153;28;20441;-69
2023/08/29 16:54:06;;;;;;;7.30;5.50;;;20.30;93.50;;;;;;10357841;28;21615;-68
2023/08/29 16:59:07;;;;;;;11.57;6.37;;;20.20;94.00;;;;;;10359235;28;20420;-67
2023/08/29 17:04:08;;;;;;;7.63;5.73;;;20.20;94.20;;;;;;10338788;28;20423;-63
2023/08/29 17:09:08;;;;;;;6.70;5.70;;;20.10;94.70;;;;;;10358942;28;20988;-65
2023/08/29 17:14:09;;;;;;;7.17;5.77;;;20.00;94.60;;;;;;10358589;28;20407;-65
2023/08/29 17:19:10;;;;;;;7.07;5.57;;;19.90;94.90;;;;;;10353943;28;20499;-64
2023/08/29 17:24:10;;;;;;;7.60;6.27;;;20.00;95.30;;;;;;10359834;28;20744;-64
2023/08/29 17:29:13;;;;;;;7.78;6.32;;;19.90;95.00;;;;;;10358528;28;20401;-65
2023/08/29 17:34:14;;;;;;;8.20;6.63;;;19.80;94.30;;;;;;10356922;28;21074;-66
2023/08/29 17:39:14;;;;;;;9.60;6.47;;;19.80;94.10;;;;;;10336677;28;20848;-66
2023/08/29 17:44:15;;;;;;;8.63;7.47;;;19.80;94.10;;;;;;10355118;28;20400;-64
2023/08/29 17:49:17;;;;;;;9.73;7.43;;;19.70;94.20;;;;;;10355201;28;20402;-66
2023/08/29 17:54:18;;;;;;;8.53;7.37;;;19.70;94.60;;;;;;10357907;28;20912;-66
2023/08/29 17:59:19;;;;;;;8.70;7.60;;;19.70;95.10;;;;;;10345494;28;20507;-66
2023/08/29 18:04:20;;;;;;;9.88;8.05;;;19.70;95.20;;;;;;10342823;28;21030;-65
2023/08/29 18:09:20;;;;;;;8.93;7.87;;;19.60;95.10;;;;;;10354681;28;20400;-64
2023/08/29 18:14:21;;;;;;;8.83;7.50;;;19.60;95.10;;;;;;10356642;28;20411;-65
2023/08/29 18:19:21;;;;;;;10.93;8.07;;;19.60;95.10;;;;;;10352476;28;20417;-65
2023/08/29 18:24:22;;;;;;;8.43;7.10;;;19.50;95.30;;;;;;10353180;28;20496;-64
2023/08/29 18:29:23;;;;;;;7.40;6.70;;;19.50;95.20;;;;;;10354998;28;20420;-64
2023/08/29 18:34:23;;;;;;;8.97;5.47;;;19.60;95.10;;;;;;10352675;28;20416;-65
2023/08/29 18:39:24;;;;;;;7.03;5.10;;;19.60;94.80;;;;;;10349996;28;20648;-65
2023/08/29 18:44:24;;;;;;;6.70;5.37;;;19.70;94.70;;;;;;10353005;28;20775;-64
2023/08/29 18:49:25;;;;;;;5.40;4.73;;;19.70;94.70;;;;;;10352470;28;20420;-63
2023/08/29 18:54:26;;;;;;;5.03;4.53;;;19.70;94.60;;;;;;10352426;28;20423;-64
2023/08/29 18:59:26;;;;;;;4.83;4.37;;;19.80;94.60;;;;;;10354620;28;20598;-64
2023/08/29 19:04:27;;;;;;;5.67;4.20;;;19.80;94.50;;;;;;10363780;28;20990;-64
2023/08/29 19:09:28;;;;;;;5.33;4.00;;;19.80;94.40;;;;;;10360771;28;20513;-63
2023/08/29 19:14:28;;;;;;;5.00;4.20;;;19.80;94.40;;;;;;10352181;28;20404;-63
2023/08/29 19:19:29;;;;;;;4.80;4.10;;;19.80;94.40;;;;;;10362350;28;20447;-63
2023/08/29 19:24:30;;;;;;;5.28;4.45;;;19.80;94.30;;;;;;10343137;28;20487;-64
2023/08/29 19:29:31;;;;;;;5.53;4.67;;;19.80;94.30;;;;;;10361884;28;20749;-63
2023/08/29 19:34:31;;;;;;;6.67;4.40;;;19.80;94.30;;;;;;10355659;28;20724;-63
2023/08/29 19:39:32;;;;;;;4.83;3.87;;;19.80;94.30;;;;;;10360559;28;20972;-64
2023/08/29 19:44:33;;;;;;;4.40;3.90;;;19.80;94.20;;;;;;10354807;28;20400;-63
2023/08/29 19:49:38;;;;;;;4.75;3.70;;;19.80;94.20;;;;;;10339411;28;20413;-64
2023/08/29 19:54:38;;;;;;;4.53;4.00;;;19.80;94.20;;;;;;10357743;28;20941;-63
2023/08/29 19:59:39;;;;;;;6.60;4.17;;;19.80;94.20;;;;;;10348074;28;20410;-64
2023/08/29 20:04:40;;;;;;;5.05;4.10;;;19.70;94.20;;;;;;10357623;28;20397;-64
2023/08/29 20:09:41;;;;;;;4.80;4.30;;;19.80;94.40;;;;;;10353407;28;20417;-63
2023/08/29 20:14:41;;;;;;;4.80;4.20;;;19.70;94.10;;;;;;10354655;28;20427;-63
2023/08/29 20:19:42;;;;;;;6.20;4.75;;;19.70;94.10;;;;;;10355178;28;20416;-63
2023/08/29 20:24:43;;;;;;;5.40;4.53;;;19.70;94.00;;;;;;10356457;28;20407;-63
2023/08/29 20:29:43;;;;;;;5.43;4.53;;;19.70;94.00;;;;;;10360006;28;20432;-65
2023/08/29 20:34:44;;;;;;;6.33;5.33;;;19.70;94.00;;;;;;10359141;28;20764;-63
2023/08/29 20:39:45;;;;;;;7.83;5.00;;;19.70;94.20;;;;;;10354159;28;20406;-63
2023/08/29 20:44:45;;;;;;;7.33;6.37;;;19.70;94.30;;;;;;10358085;28;20475;-64
2023/08/29 20:49:46;;;;;;;5.90;5.10;;;19.70;94.00;;;;;;10356247;28;20471;-63
2023/08/29 20:54:47;;;;;;;6.03;5.07;;;19.70;94.00;;;;;;10354626;28;20412;-64
2023/08/29 20:59:47;;;;;;;6.30;5.05;;;19.70;93.90;;;;;;10359309;28;20422;-64
2023/08/29 21:04:48;;;;;;;6.18;5.05;;;19.60;93.90;;;;;;10354878;28;20904;-64
2023/08/29 21:09:49;;;;;;;5.82;5.05;;;19.60;93.80;;;;;;10352374;28;21154;-63
2023/08/29 21:14:50;;;;;;;6.50;5.30;;;19.60;93.80;;;;;;10355103;28;20592;-64
2023/08/29 21:19:50;;;;;;;5.80;5.20;;;19.60;93.80;;;;;;10360100;28;20461;-64
2023/08/29 21:24:51;;;;;;;6.30;5.57;;;19.60;93.70;;;;;;10353089;28;20406;-63
2023/08/29 21:29:52;;;;;;;5.78;4.82;;;19.60;93.70;;;;;;10354566;28;20742;-64
2023/08/29 21:34:53;;;;;;;5.37;4.80;;;19.60;94.00;;;;;;10323864;28;20415;-64
2023/08/29 21:39:53;;;;;;;6.30;4.90;;;19.60;93.70;;;;;;10354336;28;20691;-62
2023/08/29 21:44:54;;;;;;;6.60;5.33;;;19.50;93.70;;;;;;10357913;28;20423;-64
2023/08/29 21:49:54;;;;;;;5.53;4.90;;;19.50;93.60;;;;;;10339211;28;20417;-62
2023/08/29 21:54:55;;;;;;;6.07;5.13;;;19.50;93.60;;;;;;10353170;28;20400;-63
2023/08/29 21:59:56;;;;;;;5.43;4.93;;;19.50;93.60;;;;;;10354726;28;20492;-63
2023/08/29 22:04:56;;;;;;;6.00;4.67;;;19.40;93.50;;;;;;10361643;28;20408;-63
2023/08/29 22:09:57;;;;;;;5.60;4.60;;;19.40;93.50;;;;;;10356943;28;20404;-63
2023/08/29 22:14:57;;;;;;;5.32;4.40;;;19.40;93.50;;;;;;10351505;28;20401;-64
2023/08/29 22:19:58;;;;;;;4.80;4.13;;;19.40;93.50;;;;;;10352184;28;20416;-62
2023/08/29 22:24:59;;;;;;;5.28;4.78;;;19.40;93.50;;;;;;10354092;28;20760;-64
2023/08/29 22:30:00;;;;;;;5.35;4.30;;;19.40;93.60;;;;;;10342033;28;20408;-64
2023/08/29 22:35:01;;;;;;;5.65;4.30;;;19.30;93.50;;;;;;10356316;28;20404;-64
2023/08/29 22:40:04;;;;;;;4.87;4.33;;;19.30;93.50;;;;;;10341763;28;20931;-64
2023/08/29 22:45:05;;;;;;;5.27;4.37;;;19.30;93.50;;;;;;10360362;28;20893;-64
2023/08/29 22:50:06;;;;;;;5.05;4.32;;;19.30;93.50;;;;;;10362662;28;20424;-63
2023/08/29 22:55:07;;;;;;;5.18;4.32;;;19.30;93.50;;;;;;10362104;28;20444;-64
2023/08/29 23:00:09;;;;;;;4.70;3.90;;;19.30;93.50;;;;;;10363708;28;20838;-63
2023/08/29 23:05:10;;;;;;;4.93;4.20;;;19.20;93.40;;;;;;10363441;28;20404;-64
2023/08/29 23:10:10;;;;;;;5.28;4.30;;;19.20;93.40;;;;;;10357858;28;20412;-64
2023/08/29 23:15:18;;;;;;;5.10;4.07;;;19.20;93.40;;;;;;10362521;28;20404;-63
2023/08/29 23:20:19;;;;;;;5.00;4.50;;;19.20;93.40;;;;;;10363483;28;20467;-64
2023/08/29 23:25:20;;;;;;;6.10;4.33;;;19.10;93.30;;;;;;10360683;28;20412;-62
2023/08/29 23:30:21;;;;;;;4.78;4.00;;;19.10;93.40;;;;;;10362971;28;20841;-64
2023/08/29 23:35:22;;;;;;;4.10;3.70;;;19.10;93.30;;;;;;10357659;28;20408;-64
2023/08/29 23:40:22;;;;;;;5.00;4.33;;;19.10;93.30;;;;;;10359926;28;20448;-62
2023/08/29 23:45:23;;;;;;;5.83;4.20;;;19.10;93.30;;;;;;10358857;28;20412;-63
2023/08/29 23:50:24;;;;;;;5.67;4.00;;;19.10;93.40;;;;;;10348556;28;20440;-64
2023/08/29 23:55:25;;;;;;;4.97;4.40;;;19.10;93.30;;;;;;10362596;28;20396;-63
